createdAt,value
2023-12-07T00:01:57.734Z,35.83
2023-12-07T00:04:25.685Z,35.83
2023-12-07T00:06:53.653Z,18.47
2023-12-07T00:09:21.578Z,16.73
2023-12-07T00:11:49.418Z,17.57
2023-12-07T00:14:18.120Z,13.23
2023-12-07T00:16:47.302Z,15.77
2023-12-07T00:19:15.286Z,16.27
2023-12-07T00:21:43.162Z,13.53
2023-12-07T00:24:11.102Z,12.47
2023-12-07T00:26:39.328Z,11.50
2023-12-07T00:29:07.285Z,11.97
2023-12-07T00:31:35.172Z,12.37
2023-12-07T00:34:04.742Z,15.23
2023-12-07T00:36:32.590Z,12.07
2023-12-07T00:39:00.451Z,11.97
2023-12-07T00:41:28.315Z,9.00
2023-12-07T00:43:56.187Z,12.27
2023-12-07T00:46:24.336Z,13.57
2023-12-07T00:48:52.212Z,11.47
2023-12-07T00:51:21.462Z,10.40
2023-12-07T00:53:49.508Z,9.47
2023-12-07T00:56:17.349Z,10.50
2023-12-07T00:58:45.185Z,8.83
2023-12-07T01:01:13.128Z,9.17
2023-12-07T01:03:41.776Z,8.33
2023-12-07T01:06:11.222Z,9.90
2023-12-07T01:08:40.613Z,8.90
2023-12-07T01:11:08.493Z,8.80
2023-12-07T01:13:37.212Z,11.43
2023-12-07T01:16:05.495Z,10.23
2023-12-07T01:18:33.982Z,6.63
2023-12-07T01:21:01.912Z,8.73
2023-12-07T01:23:29.807Z,9.60
2023-12-07T01:25:59.072Z,10.93
2023-12-07T01:28:26.984Z,12.73
2023-12-07T01:30:54.949Z,14.17
2023-12-07T01:33:23.049Z,11.67
2023-12-07T01:35:51.550Z,10.70
2023-12-07T01:38:20.465Z,11.63
2023-12-07T01:40:48.337Z,10.40
2023-12-07T01:43:17.587Z,21.20
2023-12-07T01:45:45.671Z,19.70
2023-12-07T01:48:13.599Z,16.40
2023-12-07T01:50:42.090Z,10.57
2023-12-07T01:53:10.520Z,10.17
2023-12-07T01:55:38.791Z,11.90
2023-12-07T01:58:07.819Z,11.13
2023-12-07T02:00:37.273Z,9.70
2023-12-07T02:03:07.264Z,8.97
2023-12-07T02:05:36.499Z,7.17
2023-12-07T02:08:05.909Z,9.03
2023-12-07T02:10:33.874Z,8.50
2023-12-07T02:13:01.875Z,9.57
2023-12-07T02:15:29.840Z,7.97
2023-12-07T02:18:05.178Z,10.00
2023-12-07T02:20:38.607Z,8.90
2023-12-07T02:23:09.813Z,11.17
2023-12-07T02:25:50.366Z,9.97
2023-12-07T02:28:19.747Z,7.60
2023-12-07T02:30:47.902Z,7.53
2023-12-07T02:33:16.899Z,8.20
2023-12-07T02:35:44.889Z,6.70
2023-12-07T02:38:13.387Z,8.57
2023-12-07T02:40:42.488Z,6.57
2023-12-07T02:43:11.043Z,7.70
2023-12-07T02:45:40.719Z,7.13
2023-12-07T02:48:09.485Z,6.33
2023-12-07T02:50:37.373Z,10.77
2023-12-07T02:53:05.229Z,73.93
2023-12-07T02:55:33.143Z,35.50
2023-12-07T02:58:01.123Z,20.33
2023-12-07T03:00:29.029Z,13.67
2023-12-07T03:02:58.243Z,11.50
2023-12-07T03:05:26.157Z,13.83
2023-12-07T03:07:53.972Z,12.60
2023-12-07T03:10:21.971Z,10.00
2023-12-07T03:12:49.888Z,9.40
2023-12-07T03:15:17.789Z,5.60
2023-12-07T03:17:45.786Z,7.73
2023-12-07T03:20:15.316Z,5.63
2023-12-07T03:22:43.236Z,5.67
2023-12-07T03:25:11.335Z,7.10
2023-12-07T03:27:39.288Z,5.33
2023-12-07T03:30:08.710Z,5.57
2023-12-07T03:32:36.594Z,6.73
2023-12-07T03:35:04.726Z,6.33
2023-12-07T03:37:33.952Z,7.53
2023-12-07T03:40:01.884Z,5.37
2023-12-07T03:42:50.066Z,6.30
2023-12-07T03:45:17.975Z,4.83
2023-12-07T03:47:46.026Z,5.90
2023-12-07T03:50:14.276Z,5.53
2023-12-07T03:52:43.747Z,7.70
2023-12-07T03:55:12.404Z,5.27
2023-12-07T03:57:40.507Z,5.93
2023-12-07T04:00:12.849Z,6.53
2023-12-07T04:02:40.015Z,5.13
2023-12-07T04:05:08.391Z,3.37
2023-12-07T04:07:36.561Z,3.63
2023-12-07T04:10:07.193Z,4.20
2023-12-07T04:12:35.080Z,5.43
2023-12-07T04:15:02.981Z,6.57
2023-12-07T04:17:30.944Z,5.70
2023-12-07T04:19:58.817Z,5.53
2023-12-07T04:22:27.012Z,5.17
2023-12-07T04:24:55.080Z,4.87
2023-12-07T04:27:24.314Z,7.20
2023-12-07T04:29:52.179Z,6.13
2023-12-07T04:32:20.027Z,7.50
2023-12-07T04:34:47.906Z,5.97
2023-12-07T04:37:15.757Z,7.33
2023-12-07T04:39:43.733Z,6.40
2023-12-07T04:42:11.608Z,5.23
2023-12-07T04:44:41.030Z,7.53
2023-12-07T04:47:08.903Z,7.50
2023-12-07T04:49:36.859Z,7.23
2023-12-07T04:52:04.988Z,4.60
2023-12-07T04:54:32.821Z,57.60
2023-12-07T04:57:01.028Z,24.23
2023-12-07T04:59:29.055Z,9.60
2023-12-07T05:01:58.252Z,6.07
2023-12-07T05:04:26.160Z,5.70
2023-12-07T05:06:54.166Z,5.33
2023-12-07T05:09:22.826Z,5.17
2023-12-07T05:11:51.207Z,3.87
2023-12-07T05:14:19.155Z,4.80
2023-12-07T05:16:49.429Z,5.67
2023-12-07T05:19:18.861Z,5.47
2023-12-07T05:21:46.847Z,3.73
2023-12-07T05:24:14.812Z,4.93
2023-12-07T05:26:43.653Z,11.27
2023-12-07T05:29:11.637Z,7.57
2023-12-07T05:31:39.545Z,10.30
2023-12-07T05:34:07.573Z,11.27
2023-12-07T05:36:36.833Z,6.03
2023-12-07T05:39:08.183Z,8.50
2023-12-07T05:41:36.092Z,8.20
2023-12-07T05:44:04.877Z,6.37
2023-12-07T05:46:33.780Z,6.40
2023-12-07T05:49:01.771Z,9.53
2023-12-07T05:51:29.669Z,10.00
2023-12-07T05:53:59.191Z,7.67
2023-12-07T05:56:27.244Z,7.40
2023-12-07T05:58:55.134Z,6.80
2023-12-07T06:01:23.159Z,9.77
2023-12-07T06:03:51.116Z,9.33
2023-12-07T06:06:20.000Z,25.20
2023-12-07T06:08:47.886Z,24.93
2023-12-07T06:11:17.381Z,25.63
2023-12-07T06:13:45.307Z,33.17
2023-12-07T06:16:18.173Z,10.43
2023-12-07T06:18:46.678Z,10.77
2023-12-07T06:21:16.459Z,12.53
2023-12-07T06:23:47.417Z,10.87
2023-12-07T06:26:17.219Z,12.33
2023-12-07T06:28:45.347Z,11.40
2023-12-07T06:31:16.138Z,10.03
2023-12-07T06:33:44.355Z,10.47
2023-12-07T06:36:12.614Z,9.73
2023-12-07T06:38:40.811Z,9.60
2023-12-07T06:41:08.832Z,7.90
2023-12-07T06:43:38.133Z,10.27
2023-12-07T06:46:06.255Z,9.33
2023-12-07T06:48:34.123Z,9.13
2023-12-07T06:51:02.214Z,6.30
2023-12-07T06:53:30.125Z,9.47
2023-12-07T06:55:58.180Z,9.10
2023-12-07T06:58:26.626Z,10.97
2023-12-07T07:00:55.898Z,10.93
2023-12-07T07:03:24.078Z,10.30
2023-12-07T07:05:52.357Z,14.00
2023-12-07T07:08:20.430Z,15.70
2023-12-07T07:10:48.805Z,19.17
2023-12-07T07:13:18.176Z,20.47
2023-12-07T07:15:46.336Z,13.40
2023-12-07T07:18:15.959Z,15.30
2023-12-07T07:20:44.055Z,13.07
2023-12-07T07:23:12.046Z,13.27
2023-12-07T07:25:40.773Z,15.87
2023-12-07T07:28:09.065Z,13.27
2023-12-07T07:30:36.956Z,14.70
2023-12-07T07:33:05.118Z,11.70
2023-12-07T07:35:34.483Z,13.40
2023-12-07T07:38:02.394Z,12.90
2023-12-07T07:40:30.337Z,10.57
2023-12-07T07:42:58.223Z,11.33
2023-12-07T07:45:26.162Z,12.30
2023-12-07T07:47:54.157Z,12.33
2023-12-07T07:50:22.268Z,15.53
2023-12-07T07:52:51.527Z,12.40
2023-12-07T07:55:19.515Z,13.17
2023-12-07T07:57:47.404Z,11.13
2023-12-07T08:00:17.194Z,15.70
2023-12-07T08:02:45.113Z,21.50
2023-12-07T08:05:13.789Z,14.43
2023-12-07T08:07:41.750Z,13.67
2023-12-07T08:10:11.646Z,13.03
2023-12-07T08:12:41.898Z,12.17
2023-12-07T08:15:12.219Z,12.73
2023-12-07T08:17:41.632Z,14.37
2023-12-07T08:20:11.425Z,14.83
2023-12-07T08:22:39.388Z,15.53
2023-12-07T08:25:11.586Z,16.57
2023-12-07T08:27:41.642Z,17.63
2023-12-07T08:30:11.392Z,17.83
2023-12-07T08:32:39.817Z,13.63
2023-12-07T08:35:09.666Z,13.77
2023-12-07T08:37:40.672Z,13.70
2023-12-07T08:40:11.047Z,18.23
2023-12-07T08:42:39.026Z,19.07
2023-12-07T08:45:09.114Z,14.20
2023-12-07T08:47:37.066Z,11.13
2023-12-07T08:50:05.676Z,13.40
2023-12-07T08:52:42.163Z,13.43
2023-12-07T08:55:17.025Z,12.60
2023-12-07T08:57:45.026Z,12.37
2023-12-07T09:00:15.268Z,11.23
2023-12-07T09:02:47.383Z,14.37
2023-12-07T09:05:16.660Z,14.13
2023-12-07T09:07:44.664Z,14.57
2023-12-07T09:10:12.998Z,16.80
2023-12-07T09:12:40.892Z,13.40
2023-12-07T09:15:10.848Z,13.13
2023-12-07T09:17:41.127Z,12.37
2023-12-07T09:20:13.325Z,12.53
2023-12-07T09:22:42.892Z,21.00
2023-12-07T09:25:11.216Z,16.13
2023-12-07T09:27:39.605Z,12.60
2023-12-07T09:30:11.824Z,13.80
2023-12-07T09:32:44.122Z,9.77
2023-12-07T09:35:16.186Z,10.63
2023-12-07T09:37:44.625Z,10.93
2023-12-07T09:40:18.925Z,12.53
2023-12-07T09:42:47.521Z,14.07
2023-12-07T09:45:18.045Z,13.20
2023-12-07T09:47:50.093Z,11.67
2023-12-07T09:50:19.873Z,10.90
2023-12-07T09:52:56.924Z,12.40
2023-12-07T09:55:32.986Z,9.37
2023-12-07T09:58:01.016Z,12.13
2023-12-07T10:00:29.862Z,15.33
2023-12-07T10:02:59.141Z,11.47
2023-12-07T10:05:27.757Z,8.83
2023-12-07T10:07:56.005Z,12.50
2023-12-07T10:10:23.953Z,13.10
2023-12-07T10:12:54.805Z,13.67
2023-12-07T10:15:24.343Z,11.23
2023-12-07T10:17:53.433Z,11.87
2023-12-07T10:20:25.337Z,11.10
2023-12-07T10:23:04.196Z,10.43
2023-12-07T10:25:32.722Z,10.67
2023-12-07T10:28:02.055Z,9.43
2023-12-07T10:30:30.178Z,8.10
2023-12-07T10:32:58.133Z,11.33
2023-12-07T10:35:27.909Z,11.00
2023-12-07T10:37:55.852Z,8.53
2023-12-07T10:40:24.102Z,7.23
2023-12-07T10:42:58.701Z,9.07
2023-12-07T10:45:28.198Z,9.80
2023-12-07T10:48:01.071Z,12.07
2023-12-07T10:50:36.055Z,8.93
2023-12-07T10:53:10.978Z,7.50
2023-12-07T10:55:45.529Z,8.43
2023-12-07T10:58:15.448Z,10.93
2023-12-07T11:00:47.934Z,8.60
2023-12-07T11:03:19.219Z,8.07
2023-12-07T11:05:49.663Z,7.37
2023-12-07T11:08:25.349Z,4.97
2023-12-07T11:11:04.499Z,5.10
2023-12-07T11:13:34.052Z,3.73
2023-12-07T11:16:02.532Z,5.57
2023-12-07T11:18:31.152Z,5.53
2023-12-07T11:21:02.088Z,8.37
2023-12-07T11:23:30.578Z,4.97
2023-12-07T11:25:58.571Z,3.93
2023-12-07T11:28:38.180Z,3.63
2023-12-07T11:31:09.336Z,3.83
2023-12-07T11:33:40.329Z,3.90
2023-12-07T11:36:11.666Z,5.53
2023-12-07T11:38:39.924Z,5.63
2023-12-07T11:41:08.237Z,5.37
2023-12-07T11:43:44.844Z,3.23
2023-12-07T11:46:14.014Z,3.77
2023-12-07T11:48:47.494Z,3.70
2023-12-07T11:51:18.318Z,3.80
2023-12-07T11:53:46.290Z,4.43
2023-12-07T11:56:14.665Z,5.90
2023-12-07T11:58:42.631Z,4.10
2023-12-07T12:01:11.157Z,4.50
2023-12-07T12:03:39.381Z,5.57
2023-12-07T12:06:11.234Z,4.33
2023-12-07T12:08:42.905Z,2.90
2023-12-07T12:11:10.778Z,4.43
2023-12-07T12:13:39.591Z,2.70
2023-12-07T12:16:08.972Z,4.13
2023-12-07T12:18:37.190Z,4.27
2023-12-07T12:21:05.928Z,3.80
2023-12-07T12:23:33.815Z,4.10
2023-12-07T12:26:04.137Z,4.50
2023-12-07T12:28:33.879Z,3.73
2023-12-07T12:31:02.158Z,2.27
2023-12-07T12:33:30.060Z,4.30
2023-12-07T12:36:07.819Z,3.97
2023-12-07T12:38:42.439Z,4.00
2023-12-07T12:41:14.454Z,4.20
2023-12-07T12:43:43.728Z,2.90
2023-12-07T12:46:12.946Z,3.87
2023-12-07T12:48:55.386Z,3.93
2023-12-07T12:51:25.186Z,5.27
2023-12-07T12:53:54.044Z,3.17
2023-12-07T12:56:23.921Z,3.93
2023-12-07T12:58:52.072Z,3.67
2023-12-07T13:01:21.997Z,4.23
2023-12-07T13:03:50.387Z,3.77
2023-12-07T13:06:19.088Z,4.10
2023-12-07T13:08:48.002Z,3.63
2023-12-07T13:11:17.864Z,4.73
2023-12-07T13:13:48.336Z,4.47
2023-12-07T13:16:18.065Z,3.13
2023-12-07T13:18:46.449Z,4.30
2023-12-07T13:21:16.648Z,4.67
2023-12-07T13:23:47.082Z,2.57
2023-12-07T13:26:15.374Z,3.87
2023-12-07T13:28:43.323Z,4.50
2023-12-07T13:31:12.581Z,3.53
2023-12-07T13:33:49.711Z,2.63
2023-12-07T13:36:23.957Z,2.57
2023-12-07T13:38:52.102Z,2.50
2023-12-07T13:41:20.668Z,4.33
2023-12-07T13:43:50.292Z,3.47
2023-12-07T13:46:19.833Z,2.73
2023-12-07T13:48:47.890Z,3.23
2023-12-07T13:51:15.798Z,2.10
2023-12-07T13:53:43.618Z,7.10
2023-12-07T13:56:11.632Z,3.50
2023-12-07T13:58:40.239Z,4.43
2023-12-07T14:01:08.499Z,3.73
2023-12-07T14:03:38.284Z,3.60
2023-12-07T14:06:15.074Z,4.50
2023-12-07T14:08:49.501Z,5.33
2023-12-07T14:11:17.375Z,3.17
2023-12-07T14:13:47.226Z,2.60
2023-12-07T14:16:20.132Z,4.33
2023-12-07T14:19:05.189Z,2.63
2023-12-07T14:21:52.396Z,4.70
2023-12-07T14:24:24.087Z,3.90
2023-12-07T14:26:52.023Z,3.63
2023-12-07T14:29:26.480Z,3.00
2023-12-07T14:31:55.574Z,3.33
2023-12-07T14:34:34.194Z,4.93
2023-12-07T14:37:06.549Z,9.43
2023-12-07T14:39:35.383Z,6.43
2023-12-07T14:42:05.487Z,5.50
2023-12-07T14:44:33.470Z,3.80
2023-12-07T14:47:01.423Z,4.17
2023-12-07T14:49:30.684Z,5.23
2023-12-07T14:52:01.345Z,4.77
2023-12-07T14:54:30.551Z,5.67
2023-12-07T14:56:59.478Z,3.13
2023-12-07T14:59:28.197Z,5.57
2023-12-07T15:01:56.030Z,4.90
2023-12-07T15:04:30.865Z,4.43
2023-12-07T15:07:04.589Z,5.37
2023-12-07T15:09:32.834Z,4.40
2023-12-07T15:12:00.877Z,2.47
2023-12-07T15:14:36.639Z,4.80
2023-12-07T15:17:07.695Z,5.00
2023-12-07T15:19:39.529Z,5.80
2023-12-07T15:22:09.868Z,9.60
2023-12-07T15:24:39.544Z,5.70
2023-12-07T15:27:08.926Z,8.37
2023-12-07T15:29:38.574Z,4.97
2023-12-07T15:32:08.048Z,4.33
2023-12-07T15:34:39.336Z,4.30
2023-12-07T15:37:13.899Z,6.73
2023-12-07T15:39:43.083Z,4.17
2023-12-07T15:42:12.058Z,3.73
2023-12-07T15:44:40.546Z,3.27
2023-12-07T15:47:08.743Z,7.07
2023-12-07T15:49:37.272Z,4.77
2023-12-07T15:52:06.281Z,6.33
2023-12-07T15:54:39.771Z,4.87
2023-12-07T15:57:10.717Z,4.53
2023-12-07T15:59:39.605Z,6.30
2023-12-07T16:02:08.160Z,6.60
2023-12-07T16:04:37.154Z,7.73
2023-12-07T16:07:09.892Z,6.97
2023-12-07T16:09:42.482Z,8.87
2023-12-07T16:12:11.798Z,5.23
2023-12-07T16:14:40.458Z,4.77
2023-12-07T16:17:09.473Z,7.17
2023-12-07T16:19:37.651Z,7.80
2023-12-07T16:22:06.804Z,5.47
2023-12-07T16:24:35.572Z,4.10
2023-12-07T16:27:07.880Z,5.37
2023-12-07T16:29:36.834Z,4.93
2023-12-07T16:32:06.070Z,4.80
2023-12-07T16:34:34.151Z,5.43
2023-12-07T16:37:02.173Z,6.63
2023-12-07T16:39:31.145Z,4.87
2023-12-07T16:42:02.277Z,6.77
2023-12-07T16:44:33.036Z,6.03
2023-12-07T16:47:01.140Z,8.00
2023-12-07T16:49:29.221Z,6.17
2023-12-07T16:51:57.177Z,6.80
2023-12-07T16:54:25.217Z,5.60
2023-12-07T16:56:53.305Z,6.00
2023-12-07T16:59:21.521Z,6.67
2023-12-07T17:01:51.231Z,5.70
2023-12-07T17:04:19.731Z,6.20
2023-12-07T17:06:55.727Z,6.40
2023-12-07T17:09:25.964Z,8.77
2023-12-07T17:11:53.934Z,9.20
2023-12-07T17:14:22.049Z,6.30
2023-12-07T17:16:52.107Z,10.67
2023-12-07T17:19:20.382Z,7.37
2023-12-07T17:21:49.460Z,9.33
2023-12-07T17:24:19.482Z,8.63
2023-12-07T17:26:52.644Z,9.67
2023-12-07T17:29:22.896Z,9.13
2023-12-07T17:31:52.202Z,7.13
2023-12-07T17:34:20.280Z,8.80
2023-12-07T17:36:48.459Z,9.60
2023-12-07T17:39:16.784Z,7.97
2023-12-07T17:41:44.822Z,7.63
2023-12-07T17:44:12.852Z,9.27
2023-12-07T17:46:40.776Z,7.10
2023-12-07T17:49:10.384Z,6.70
2023-12-07T17:51:38.353Z,12.30
2023-12-07T17:54:06.538Z,9.37
2023-12-07T17:56:34.557Z,9.97
2023-12-07T17:59:03.947Z,8.87
2023-12-07T18:01:31.883Z,9.57
2023-12-07T18:04:00.709Z,10.10
2023-12-07T18:06:30.294Z,8.10
2023-12-07T18:08:58.342Z,9.47
2023-12-07T18:11:26.523Z,10.67
2023-12-07T18:13:55.160Z,7.97
2023-12-07T18:16:24.353Z,8.27
2023-12-07T18:18:52.792Z,7.67
2023-12-07T18:21:21.280Z,8.60
2023-12-07T18:23:50.600Z,9.13
2023-12-07T18:26:18.796Z,6.10
2023-12-07T18:28:46.752Z,7.47
2023-12-07T18:31:15.466Z,7.90
2023-12-07T18:33:44.178Z,4.70
2023-12-07T18:36:12.286Z,5.97
2023-12-07T18:38:40.210Z,5.70
2023-12-07T18:41:09.460Z,6.73
2023-12-07T18:43:37.310Z,4.77
2023-12-07T18:46:06.913Z,5.53
2023-12-07T18:48:35.189Z,8.07
2023-12-07T18:51:04.421Z,7.47
2023-12-07T18:53:33.206Z,5.47
2023-12-07T18:56:01.441Z,6.57
2023-12-07T18:58:30.689Z,4.77
2023-12-07T19:00:59.293Z,7.00
2023-12-07T19:03:27.190Z,5.30
2023-12-07T19:05:55.220Z,7.87
2023-12-07T19:08:23.769Z,5.60
2023-12-07T19:10:51.726Z,8.23
2023-12-07T19:13:19.699Z,8.07
2023-12-07T19:15:50.344Z,6.67
2023-12-07T19:18:18.518Z,7.77
2023-12-07T19:20:46.468Z,6.67
2023-12-07T19:23:14.332Z,7.47
2023-12-07T19:25:42.275Z,6.43
2023-12-07T19:28:10.104Z,6.00
2023-12-07T19:30:38.047Z,8.70
2023-12-07T19:33:09.137Z,7.13
2023-12-07T19:35:37.083Z,9.27
2023-12-07T19:38:06.111Z,5.53
2023-12-07T19:40:34.000Z,8.80
2023-12-07T19:43:01.911Z,28.13
2023-12-07T19:45:31.061Z,20.53
2023-12-07T19:47:59.137Z,10.50
2023-12-07T19:50:29.390Z,38.87
2023-12-07T19:52:57.313Z,8.87
2023-12-07T19:55:26.458Z,7.80
2023-12-07T19:57:54.291Z,7.73
2023-12-07T20:00:23.223Z,2.27
2023-12-07T20:02:51.212Z,5.97
2023-12-07T20:05:19.389Z,6.73
2023-12-07T20:07:51.566Z,4.47
2023-12-07T20:10:20.441Z,10.37
2023-12-07T20:12:50.431Z,7.20
2023-12-07T20:15:18.807Z,10.97
2023-12-07T20:17:46.952Z,11.10
2023-12-07T20:20:14.986Z,6.70
2023-12-07T20:22:42.786Z,7.70
2023-12-07T20:25:12.020Z,10.67
2023-12-07T20:27:39.834Z,11.43
2023-12-07T20:30:09.952Z,7.70
2023-12-07T20:32:38.292Z,7.50
2023-12-07T20:35:06.982Z,7.57
2023-12-07T20:37:34.850Z,7.90
2023-12-07T20:40:03.603Z,9.97
2023-12-07T20:42:32.868Z,7.90
2023-12-07T20:45:00.907Z,9.47
2023-12-07T20:47:29.266Z,7.40
2023-12-07T20:49:57.505Z,7.23
2023-12-07T20:52:26.514Z,9.13
2023-12-07T20:54:54.993Z,9.53
2023-12-07T20:57:23.017Z,8.77
2023-12-07T20:59:52.387Z,11.60
2023-12-07T21:02:20.924Z,10.90
2023-12-07T21:04:48.821Z,12.70
2023-12-07T21:07:16.763Z,10.10
2023-12-07T21:09:44.756Z,12.00
2023-12-07T21:12:12.834Z,9.70
2023-12-07T21:14:40.915Z,12.57
2023-12-07T21:17:14.233Z,11.20
2023-12-07T21:19:42.140Z,9.40
2023-12-07T21:22:10.126Z,15.53
2023-12-07T21:24:37.971Z,9.23
2023-12-07T21:27:06.327Z,11.03
2023-12-07T21:29:34.207Z,9.60
2023-12-07T21:32:02.016Z,10.07
2023-12-07T21:34:31.275Z,7.17
2023-12-07T21:36:59.457Z,8.97
2023-12-07T21:39:27.299Z,9.33
2023-12-07T21:41:55.148Z,11.10
2023-12-07T21:44:22.987Z,7.47
2023-12-07T21:46:50.814Z,9.23
2023-12-07T21:49:19.223Z,9.13
2023-12-07T21:51:48.459Z,10.13
2023-12-07T21:54:16.340Z,16.03
2023-12-07T21:56:44.198Z,12.37
2023-12-07T21:59:12.644Z,10.57
2023-12-07T22:01:40.490Z,9.40
2023-12-07T22:04:08.452Z,13.13
2023-12-07T22:06:36.540Z,11.70
2023-12-07T22:09:05.763Z,10.37
2023-12-07T22:11:33.664Z,9.47
2023-12-07T22:14:01.532Z,9.10
2023-12-07T22:16:29.367Z,11.40
2023-12-07T22:18:57.442Z,13.80
2023-12-07T22:21:25.360Z,10.27
2023-12-07T22:23:53.197Z,10.13
2023-12-07T22:26:22.419Z,9.93
2023-12-07T22:28:50.252Z,12.40
2023-12-07T22:31:18.119Z,11.80
2023-12-07T22:33:59.986Z,12.90
2023-12-07T22:36:29.384Z,15.87
2023-12-07T22:38:59.081Z,12.43
2023-12-07T22:41:28.798Z,13.17
2023-12-07T22:43:56.850Z,16.87
2023-12-07T22:46:25.446Z,12.47
2023-12-07T22:48:53.457Z,14.27
2023-12-07T22:51:21.388Z,15.20
2023-12-07T22:53:49.325Z,14.10
2023-12-07T22:56:17.203Z,15.53
2023-12-07T22:58:47.358Z,16.60
2023-12-07T23:01:15.249Z,12.90
2023-12-07T23:03:43.248Z,14.73
2023-12-07T23:06:11.182Z,14.03
2023-12-07T23:08:39.083Z,10.33
2023-12-07T23:11:06.976Z,10.70
2023-12-07T23:13:34.826Z,11.20
2023-12-07T23:16:03.995Z,9.53
2023-12-07T23:18:31.967Z,9.00
2023-12-07T23:21:00.066Z,8.73
2023-12-07T23:23:31.534Z,9.07
2023-12-07T23:26:00.390Z,9.37
2023-12-07T23:28:28.318Z,8.87
2023-12-07T23:30:56.140Z,10.03
2023-12-07T23:33:25.403Z,9.07
2023-12-07T23:35:53.438Z,10.23
2023-12-07T23:38:21.475Z,9.33
2023-12-07T23:40:49.312Z,13.47
2023-12-07T23:43:17.361Z,11.47
2023-12-07T23:45:45.413Z,9.90
2023-12-07T23:48:13.409Z,10.57
2023-12-07T23:50:42.864Z,8.53
2023-12-07T23:53:10.804Z,9.67
2023-12-07T23:55:38.896Z,9.17
2023-12-07T23:58:07.178Z,9.70
